Time;durP1;ratioP1;P1;durP2;ratioP2;P2;SDS_P1;SDS_P2;PMS_P1;PMS_P2;Temp;Humidity;BMP_temperature;BMP_pressure;BME280_temperature;BME280_humidity;BME280_pressure;Samples;Min_cycle;Max_cycle;Signal;HPM_P1;HPM_P2
2021/01/14 00:00:07;;;;;;;1999.90;999.90;;;4.30;99.90;;;;;;5015847;28;20563;-86
2021/01/14 00:02:33;;;;;;;1999.90;999.90;;;4.20;99.90;;;;;;5015903;28;20189;-85
2021/01/14 00:04:59;;;;;;;1999.90;999.90;;;4.20;99.90;;;;;;4997699;28;20197;-85
2021/01/14 00:07:24;;;;;;;1999.90;999.90;;;4.20;99.90;;;;;;4997550;28;20518;-85
2021/01/14 00:09:50;;;;;;;1999.90;999.90;;;4.20;99.90;;;;;;5015347;28;20162;-86
2021/01/14 00:12:16;;;;;;;1999.90;999.90;;;4.20;99.90;;;;;;5016214;28;20664;-85
2021/01/14 00:14:41;;;;;;;1999.90;999.90;;;4.20;99.90;;;;;;5015734;28;20241;-85
2021/01/14 00:17:07;;;;;;;1999.90;999.90;;;4.30;99.90;;;;;;4997631;28;20253;-86
2021/01/14 00:19:33;;;;;;;1999.90;999.90;;;4.20;99.90;;;;;;5014930;28;20228;-85
2021/01/14 00:21:58;;;;;;;1999.90;999.90;;;4.20;99.90;;;;;;5014605;28;20224;-85
2021/01/14 00:24:24;;;;;;;1999.90;999.90;;;4.20;99.90;;;;;;4997991;28;20261;-86
2021/01/14 00:26:50;;;;;;;1999.90;999.90;;;4.20;99.90;;;;;;5015350;28;20588;-85
2021/01/14 00:29:16;;;;;;;1999.90;999.90;;;4.10;99.90;;;;;;4997961;28;20974;-86
2021/01/14 00:31:41;;;;;;;1999.90;999.90;;;4.20;99.90;;;;;;5014990;28;20173;-85
2021/01/14 00:34:08;;;;;;;1999.90;999.90;;;4.20;99.90;;;;;;5015749;28;20204;-86
2021/01/14 00:37:50;;;;;;;1999.90;999.90;;;4.20;99.90;;;;;;5015424;28;20617;-85
2021/01/14 00:39:24;;;;;;;1999.90;999.90;;;4.20;99.90;;;;;;5014931;28;20173;-86
2021/01/14 00:41:51;;;;;;;1999.90;999.90;;;4.10;99.90;;;;;;5015808;28;20233;-85
2021/01/14 00:44:17;;;;;;;1999.90;999.90;;;4.20;99.90;;;;;;5015219;28;20174;-86
2021/01/14 00:46:42;;;;;;;1999.90;999.90;;;4.20;99.90;;;;;;4997552;28;20513;-86
2021/01/14 00:49:08;;;;;;;1999.90;999.90;;;4.20;99.90;;;;;;5015842;28;20439;-86
2021/01/14 00:51:35;;;;;;;1999.90;999.90;;;4.10;99.90;;;;;;4997366;28;20209;-86
2021/01/14 00:54:01;;;;;;;1999.90;999.90;;;4.10;99.90;;;;;;5014987;28;20452;-86
2021/01/14 00:56:37;;;;;;;1999.90;999.90;;;4.00;99.90;;;;;;4997311;28;20265;-85
2021/01/14 00:59:06;;;;;;;1999.90;999.90;;;4.10;99.90;;;;;;5015738;28;20529;-86
2021/01/14 01:01:33;;;;;;;1999.90;999.90;;;4.10;99.90;;;;;;5014931;28;20158;-85
2021/01/14 01:03:59;;;;;;;1999.90;999.90;;;4.10;99.90;;;;;;5015188;28;20188;-86
2021/01/14 01:06:36;;;;;;;1999.90;999.90;;;4.20;99.90;;;;;;5015305;28;20664;-86
2021/01/14 01:09:07;;;;;;;1999.90;999.90;;;4.20;99.90;;;;;;5015824;28;20513;-86
2021/01/14 01:11:33;;;;;;;1999.90;999.90;;;4.10;99.90;;;;;;5015126;28;20181;-85
2021/01/14 01:13:59;;;;;;;1999.90;999.90;;;4.00;99.90;;;;;;4997202;28;20199;-85
2021/01/14 01:16:25;;;;;;;1999.90;999.90;;;4.00;99.90;;;;;;5015100;28;20409;-85
2021/01/14 01:18:51;;;;;;;1999.90;999.90;;;4.10;99.90;;;;;;5016330;28;20173;-86
2021/01/14 01:21:17;;;;;;;1999.90;999.90;;;4.00;99.90;;;;;;5018066;28;20241;-86
2021/01/14 01:23:43;;;;;;;1999.90;999.90;;;4.10;99.90;;;;;;5019020;28;20411;-85
2021/01/14 01:26:13;;;;;;;1999.90;999.90;;;4.10;99.90;;;;;;5018448;28;20401;-86
2021/01/14 01:28:39;;;;;;;1999.90;999.90;;;4.00;99.90;;;;;;5018171;28;20242;-86
2021/01/14 01:31:05;;;;;;;1999.90;999.90;;;4.00;99.90;;;;;;5018500;28;20193;-85
2021/01/14 01:33:30;;;;;;;1999.90;999.90;;;4.00;99.90;;;;;;5018798;28;20185;-86
2021/01/14 01:35:56;;;;;;;1999.90;999.90;;;4.10;99.90;;;;;;5018509;28;20158;-86
2021/01/14 01:38:22;;;;;;;1999.90;999.90;;;4.00;99.90;;;;;;5001351;28;20249;-85
2021/01/14 01:41:01;;;;;;;1999.90;999.90;;;4.10;99.90;;;;;;5018746;28;20173;-86
2021/01/14 01:43:27;;;;;;;1999.90;999.90;;;4.00;99.90;;;;;;5000817;28;20529;-85
2021/01/14 01:45:53;;;;;;;1999.90;999.90;;;4.00;99.90;;;;;;5017838;28;20181;-86
2021/01/14 01:48:22;;;;;;;1999.90;999.90;;;4.00;99.90;;;;;;5000514;28;20755;-85
2021/01/14 01:50:50;;;;;;;1999.90;999.90;;;3.90;99.90;;;;;;5001212;28;20224;-85
2021/01/14 01:53:16;;;;;;;1999.90;999.90;;;3.90;99.90;;;;;;5018036;28;20192;-86
2021/01/14 01:55:43;;;;;;;1999.90;999.90;;;4.00;99.90;;;;;;5000622;28;20233;-86
2021/01/14 01:58:11;;;;;;;1999.90;999.90;;;4.00;99.90;;;;;;5017923;28;20173;-86
2021/01/14 02:00:36;;;;;;;1999.90;999.90;;;3.90;99.90;;;;;;4999903;28;20172;-86
2021/01/14 02:03:02;;;;;;;1999.90;999.90;;;3.90;99.90;;;;;;5017947;28;20615;-86
2021/01/14 02:05:28;;;;;;;1999.90;999.90;;;4.00;99.90;;;;;;5000305;28;20256;-86
2021/01/14 02:08:44;;;;;;;1999.90;999.90;;;4.00;99.90;;;;;;5018392;28;20176;-86
2021/01/14 02:11:20;;;;;;;1999.90;999.90;;;3.90;99.90;;;;;;4957165;28;20265;-86
2021/01/14 02:13:57;;;;;;;1999.90;999.90;;;3.90;99.90;;;;;;4999703;28;20193;-85
2021/01/14 02:16:23;;;;;;;1999.90;999.90;;;3.90;99.90;;;;;;4999455;28;20317;-86
2021/01/14 02:18:54;;;;;;;1999.90;999.90;;;3.90;99.90;;;;;;5017296;28;20257;-85
2021/01/14 02:21:23;;;;;;;1999.90;999.90;;;4.00;99.90;;;;;;5000295;28;20158;-86
2021/01/14 02:23:56;;;;;;;1999.90;999.90;;;4.00;99.90;;;;;;4999735;28;20197;-85
2021/01/14 02:26:24;;;;;;;1999.90;999.90;;;3.90;99.90;;;;;;5017408;28;20572;-86
2021/01/14 02:28:52;;;;;;;1999.90;999.90;;;3.90;99.90;;;;;;5016895;28;20253;-86
2021/01/14 02:31:20;;;;;;;1999.90;999.90;;;3.90;99.90;;;;;;5017096;28;20170;-86
2021/01/14 02:33:51;;;;;;;1999.90;999.90;;;4.00;99.90;;;;;;5016765;28;20763;-85
2021/01/14 02:36:17;;;;;;;1999.90;999.90;;;3.90;99.90;;;;;;5016722;28;20185;-86
2021/01/14 02:38:42;;;;;;;1999.90;999.90;;;3.90;99.90;;;;;;4999422;28;20256;-86
2021/01/14 02:41:08;;;;;;;1999.90;999.90;;;3.90;99.90;;;;;;5017210;28;20248;-86
2021/01/14 02:43:35;;;;;;;1999.90;999.90;;;3.90;99.90;;;;;;5017237;28;20170;-86
2021/01/14 02:46:02;;;;;;;1999.90;999.90;;;3.90;99.90;;;;;;5017114;28;20177;-86
2021/01/14 02:48:45;;;;;;;1999.90;999.90;;;3.80;99.90;;;;;;4999458;28;20170;-86
2021/01/14 02:51:29;;;;;;;1999.90;999.90;;;3.80;99.90;;;;;;5016924;28;20197;-86
2021/01/14 02:53:55;;;;;;;1999.90;999.90;;;3.70;99.90;;;;;;4999076;28;20697;-85
2021/01/14 02:56:23;;;;;;;1999.90;999.90;;;3.60;99.90;;;;;;5017402;28;20170;-85
2021/01/14 02:58:49;;;;;;;1999.90;999.90;;;3.70;99.90;;;;;;5016448;28;20185;-86
2021/01/14 03:01:15;;;;;;;1999.90;999.90;;;3.70;99.90;;;;;;5016432;28;20200;-86
2021/01/14 03:03:40;;;;;;;1999.90;999.90;;;3.70;99.90;;;;;;5016014;28;20185;-85
2021/01/14 03:06:06;;;;;;;1999.90;999.90;;;3.70;99.90;;;;;;5016378;28;20177;-86
2021/01/14 03:08:31;;;;;;;1999.90;999.90;;;3.60;99.90;;;;;;4998891;28;20260;-86
2021/01/14 03:10:57;;;;;;;1999.90;999.90;;;3.70;99.90;;;;;;5016721;28;20162;-86
2021/01/14 03:13:23;;;;;;;1999.90;999.90;;;3.70;99.90;;;;;;4998821;28;20229;-86
2021/01/14 03:15:48;;;;;;;1999.90;999.90;;;3.80;99.90;;;;;;5016106;28;20197;-85
2021/01/14 03:18:14;;;;;;;1999.90;999.90;;;3.80;99.90;;;;;;5016680;28;20244;-86
2021/01/14 03:20:40;;;;;;;1999.90;999.90;;;3.80;99.90;;;;;;5016392;28;20888;-86
2021/01/14 03:23:06;;;;;;;1999.90;999.90;;;3.70;99.90;;;;;;4998411;28;20178;-86
2021/01/14 03:25:31;;;;;;;1999.90;999.90;;;3.70;99.90;;;;;;4998633;28;20652;-85
2021/01/14 03:27:57;;;;;;;1999.90;999.90;;;3.60;99.90;;;;;;4998599;28;20484;-85
2021/01/14 03:30:23;;;;;;;1999.90;999.90;;;3.60;99.90;;;;;;5015829;28;20169;-86
2021/01/14 03:32:49;;;;;;;1999.90;999.90;;;3.60;99.90;;;;;;5015761;28;20193;-85
2021/01/14 03:35:14;;;;;;;1999.90;999.90;;;3.60;99.90;;;;;;5016133;28;20162;-85
2021/01/14 03:37:43;;;;;;;1999.90;999.90;;;3.60;99.90;;;;;;5016003;28;20649;-86
2021/01/14 03:40:09;;;;;;;1999.90;999.90;;;3.60;99.90;;;;;;5015863;28;20168;-86
2021/01/14 03:42:36;;;;;;;1999.90;999.90;;;3.50;99.90;;;;;;4997354;28;20679;-85
2021/01/14 03:45:05;;;;;;;1999.90;999.90;;;3.50;99.90;;;;;;4998477;28;20181;-86
2021/01/14 03:47:31;;;;;;;1999.90;999.90;;;3.60;99.90;;;;;;4998197;28;20173;-86
2021/01/14 03:49:57;;;;;;;1999.90;999.90;;;3.60;99.90;;;;;;5016219;28;20162;-85
2021/01/14 03:52:23;;;;;;;1999.90;999.90;;;3.50;99.90;;;;;;4998341;28;20257;-85
2021/01/14 03:54:48;;;;;;;1999.90;999.90;;;3.60;99.90;;;;;;4997999;28;20177;-86
2021/01/14 03:57:14;;;;;;;1999.90;999.90;;;3.50;99.90;;;;;;4998263;28;20247;-85
2021/01/14 03:59:42;;;;;;;1999.90;999.90;;;3.50;99.90;;;;;;5015090;28;20405;-85
2021/01/14 04:02:07;;;;;;;1999.90;999.90;;;3.50;99.90;;;;;;5015468;28;20170;-86
2021/01/14 04:04:35;;;;;;;1999.90;999.90;;;3.50;99.90;;;;;;5015726;28;20181;-86
2021/01/14 04:07:01;;;;;;;1999.90;999.90;;;3.40;99.90;;;;;;5015617;28;20193;-86
2021/01/14 04:09:27;;;;;;;1999.90;999.90;;;3.30;99.90;;;;;;5015772;28;20181;-86
2021/01/14 04:11:53;;;;;;;1999.90;999.90;;;3.30;99.90;;;;;;4998084;28;20173;-86
2021/01/14 04:14:20;;;;;;;1999.90;999.90;;;3.30;99.90;;;;;;5015672;28;20252;-86
2021/01/14 04:16:49;;;;;;;1999.90;999.90;;;3.30;99.90;;;;;;5015411;28;20162;-86
2021/01/14 04:19:15;;;;;;;1999.90;999.90;;;3.30;99.90;;;;;;4998355;28;20215;-86
2021/01/14 04:21:41;;;;;;;1999.90;999.90;;;3.40;99.90;;;;;;4998090;28;20185;-86
2021/01/14 04:24:07;;;;;;;1999.90;999.90;;;3.40;99.90;;;;;;5015302;28;20637;-85
2021/01/14 04:26:32;;;;;;;1999.90;999.90;;;3.40;99.90;;;;;;5015566;28;20176;-85
2021/01/14 04:28:58;;;;;;;1999.90;999.90;;;3.40;99.90;;;;;;5015752;28;20637;-86
2021/01/14 04:31:24;;;;;;;1999.90;999.90;;;3.30;99.90;;;;;;5015204;28;20511;-86
2021/01/14 04:33:49;;;;;;;1999.90;999.90;;;3.40;99.90;;;;;;5015316;28;20236;-85
2021/01/14 04:36:16;;;;;;;1999.90;999.90;;;3.40;99.90;;;;;;5015371;28;20166;-86
2021/01/14 04:38:43;;;;;;;1999.90;999.90;;;3.30;99.90;;;;;;4997868;28;20170;-85
2021/01/14 04:41:08;;;;;;;1999.90;999.90;;;3.30;99.90;;;;;;4998151;28;20166;-86
2021/01/14 04:43:34;;;;;;;1999.90;999.90;;;3.30;99.90;;;;;;5015261;28;20204;-86
2021/01/14 04:46:08;;;;;;;1999.90;999.90;;;3.30;99.90;;;;;;5015590;28;20412;-86
2021/01/14 04:48:36;;;;;;;1999.90;999.90;;;3.30;99.90;;;;;;4997670;28;20544;-85
2021/01/14 04:51:15;;;;;;;1999.90;999.90;;;3.20;99.90;;;;;;5015220;28;20170;-86
2021/01/14 04:53:47;;;;;;;1999.90;999.90;;;3.30;99.90;;;;;;5001371;28;20197;-86
2021/01/14 04:56:14;;;;;;;1999.90;999.90;;;3.30;99.90;;;;;;5019697;28;20150;-85
2021/01/14 04:58:45;;;;;;;1999.90;999.90;;;3.30;99.90;;;;;;5018883;28;20184;-86
2021/01/14 05:01:24;;;;;;;1999.90;999.90;;;3.30;99.90;;;;;;5018815;28;20145;-86
2021/01/14 05:03:52;;;;;;;1999.90;999.90;;;3.30;99.90;;;;;;5019301;28;20208;-86
2021/01/14 05:06:19;;;;;;;1999.90;999.90;;;3.30;99.90;;;;;;5001364;28;20170;-86
2021/01/14 05:08:47;;;;;;;1999.90;999.90;;;3.20;99.90;;;;;;5018985;28;20161;-86
2021/01/14 05:11:15;;;;;;;1999.90;999.90;;;3.30;99.90;;;;;;5018387;28;20588;-86
2021/01/14 05:13:42;;;;;;;1999.90;999.90;;;3.30;99.90;;;;;;5018586;28;20653;-85
2021/01/14 05:16:08;;;;;;;1999.90;999.90;;;3.30;99.90;;;;;;5001182;28;20174;-86
2021/01/14 05:18:34;;;;;;;1999.90;999.90;;;3.20;99.90;;;;;;5018502;28;20173;-86
2021/01/14 05:21:01;;;;;;;1999.90;999.90;;;3.20;99.90;;;;;;5000965;28;20170;-86
2021/01/14 05:23:28;;;;;;;1999.90;999.90;;;3.20;99.90;;;;;;5001583;28;20209;-86
2021/01/14 05:25:54;;;;;;;1999.90;999.90;;;3.10;99.90;;;;;;5000789;28;20227;-86
2021/01/14 05:28:25;;;;;;;1999.90;999.90;;;3.20;99.90;;;;;;5001010;28;20170;-86
2021/01/14 05:30:54;;;;;;;1999.90;999.90;;;3.10;99.90;;;;;;5000766;28;20192;-86
2021/01/14 05:33:22;;;;;;;1999.90;999.90;;;3.10;99.90;;;;;;5018369;28;20193;-86
2021/01/14 05:35:53;;;;;;;1999.90;999.90;;;3.10;99.90;;;;;;5000803;28;20263;-86
2021/01/14 05:38:24;;;;;;;1999.90;999.90;;;3.10;99.90;;;;;;5000558;28;20518;-86
2021/01/14 05:43:56;;;;;;;1999.90;999.90;;;3.10;99.90;;;;;;5018889;28;20599;-86
2021/01/14 05:46:29;;;;;;;1999.90;999.90;;;3.10;99.90;;;;;;5000348;28;20178;-85
2021/01/14 05:48:57;;;;;;;1999.90;999.90;;;3.10;99.90;;;;;;5017964;28;20162;-86
2021/01/14 05:51:36;;;;;;;1999.90;999.90;;;3.10;99.90;;;;;;5017721;28;20533;-85
2021/01/14 05:54:04;;;;;;;1999.90;999.90;;;3.10;99.90;;;;;;5018174;28;20208;-86
2021/01/14 05:56:43;;;;;;;1999.90;999.90;;;3.10;99.90;;;;;;5017695;28;20166;-86
2021/01/14 05:59:10;;;;;;;1999.90;999.90;;;3.10;99.90;;;;;;5000951;28;20640;-86
2021/01/14 06:01:37;;;;;;;1999.90;999.90;;;3.10;99.90;;;;;;5000136;28;20242;-86
2021/01/14 06:04:23;;;;;;;1999.90;999.90;;;3.10;99.90;;;;;;4999121;28;20189;-86
2021/01/14 06:06:51;;;;;;;1999.90;999.90;;;3.10;99.90;;;;;;5000734;28;20577;-85
2021/01/14 06:09:22;;;;;;;1999.90;999.90;;;3.10;99.90;;;;;;5018303;28;20533;-86
2021/01/14 06:11:49;;;;;;;1999.90;999.90;;;3.10;99.90;;;;;;5018556;28;20176;-86
2021/01/14 06:14:31;;;;;;;1999.90;999.90;;;3.00;99.90;;;;;;4999856;28;20247;-86
2021/01/14 06:16:59;;;;;;;1999.90;999.90;;;3.00;99.90;;;;;;5000059;28;20166;-86
2021/01/14 06:19:26;;;;;;;1999.90;999.90;;;2.90;99.90;;;;;;5017431;28;20663;-86
2021/01/14 06:21:58;;;;;;;1999.90;999.90;;;2.90;99.90;;;;;;5000341;28;20589;-85
2021/01/14 06:24:26;;;;;;;1999.90;999.90;;;2.80;99.90;;;;;;4999501;28;20232;-85
2021/01/14 06:26:57;;;;;;;1999.90;999.90;;;2.80;99.90;;;;;;5017354;28;20189;-86
2021/01/14 06:29:27;;;;;;;1999.90;999.90;;;2.70;99.90;;;;;;5017168;28;20160;-85
2021/01/14 06:32:09;;;;;;;1999.90;999.90;;;2.70;99.90;;;;;;5017092;28;20162;-86
2021/01/14 06:34:36;;;;;;;1999.90;999.90;;;2.60;99.90;;;;;;4999742;28;20656;-86
2021/01/14 06:37:15;;;;;;;1999.90;999.90;;;2.50;99.90;;;;;;5017715;28;20158;-86
2021/01/14 06:39:55;;;;;;;1999.90;999.90;;;2.40;99.90;;;;;;5000114;28;20244;-86
2021/01/14 06:42:22;;;;;;;1999.90;999.90;;;2.40;99.90;;;;;;5017803;28;20150;-86
2021/01/14 06:44:51;;;;;;;1999.90;999.90;;;2.40;99.90;;;;;;4999941;28;20204;-86
2021/01/14 06:47:30;;;;;;;1999.90;999.90;;;2.40;99.90;;;;;;4999894;28;20173;-86
2021/01/14 06:50:06;;;;;;;1999.90;999.90;;;2.40;99.90;;;;;;5000321;28;20170;-86
2021/01/14 06:52:35;;;;;;;1999.90;999.90;;;2.40;99.90;;;;;;4999717;28;20204;-86
2021/01/14 06:55:01;;;;;;;1999.90;999.90;;;2.40;99.90;;;;;;5017310;28;20169;-86
2021/01/14 06:57:35;;;;;;;1999.90;999.90;;;2.50;99.90;;;;;;5018497;28;20525;-86
2021/01/14 07:00:04;;;;;;;1999.90;999.90;;;2.40;99.90;;;;;;5002158;28;20907;-86
2021/01/14 07:03:01;;;;;;;1999.90;999.90;;;2.30;99.90;;;;;;5001818;28;20184;-86
2021/01/14 07:05:57;;;;;;;1999.90;999.90;;;2.30;99.90;;;;;;4989457;28;20200;-86
2021/01/14 07:08:30;;;;;;;1999.90;999.90;;;2.20;99.90;;;;;;4982685;28;20178;-86
2021/01/14 07:11:03;;;;;;;1999.90;999.90;;;2.10;99.90;;;;;;5001782;28;20162;-86
2021/01/14 07:13:32;;;;;;;1999.90;999.90;;;2.10;99.90;;;;;;5001991;28;20193;-86
2021/01/14 07:15:59;;;;;;;1999.90;999.90;;;2.20;99.90;;;;;;5001879;28;20166;-87
2021/01/14 07:18:35;;;;;;;1999.90;999.90;;;2.20;99.90;;;;;;5019117;28;20162;-87
2021/01/14 07:21:26;;;;;;;1999.90;999.90;;;2.10;99.90;;;;;;5001552;28;20162;-86
2021/01/14 07:24:04;;;;;;;1999.90;999.90;;;2.20;99.90;;;;;;5001708;28;20220;-87
2021/01/14 07:26:31;;;;;;;1999.90;999.90;;;2.10;99.90;;;;;;5000722;28;20719;-86
2021/01/14 07:29:02;;;;;;;1999.90;999.90;;;2.20;99.90;;;;;;5018754;28;20174;-86
2021/01/14 07:31:28;;;;;;;1999.90;999.90;;;2.20;99.90;;;;;;5001415;28;20636;-87
2021/01/14 07:33:55;;;;;;;1999.90;999.90;;;2.20;99.90;;;;;;5019294;28;20193;-87
2021/01/14 07:36:23;;;;;;;1999.90;999.90;;;2.20;99.90;;;;;;5017591;28;20401;-86
2021/01/14 07:38:54;;;;;;;1999.90;999.90;;;2.20;99.90;;;;;;5018245;28;20170;-86
2021/01/14 07:41:21;;;;;;;1999.90;999.90;;;2.20;99.90;;;;;;5001031;28;20150;-86
2021/01/14 07:43:47;;;;;;;1999.90;999.90;;;2.20;99.90;;;;;;5018463;28;20533;-86
2021/01/14 07:46:24;;;;;;;1999.90;999.90;;;2.30;99.90;;;;;;5000485;28;20244;-86
2021/01/14 07:48:51;;;;;;;1999.90;999.90;;;2.30;99.90;;;;;;5017287;28;20208;-86
2021/01/14 07:51:18;;;;;;;1999.90;999.90;;;2.30;99.90;;;;;;4999369;28;20175;-85
2021/01/14 07:54:07;;;;;;;1999.90;999.90;;;2.30;99.90;;;;;;5016350;28;20244;-85
2021/01/14 07:56:48;;;;;;;1999.90;999.90;;;2.40;99.90;;;;;;5017820;28;20513;-86
2021/01/14 07:59:25;;;;;;;1999.90;999.90;;;2.40;99.90;;;;;;5018974;28;20482;-86
2021/01/14 08:02:07;;;;;;;1999.90;999.90;;;2.40;99.90;;;;;;5019830;28;20150;-87
2021/01/14 08:04:45;;;;;;;1999.90;999.90;;;2.40;99.90;;;;;;5002470;28;20245;-87
2021/01/14 08:07:24;;;;;;;1999.90;999.90;;;2.40;99.90;;;;;;5002295;28;20162;-87
2021/01/14 08:09:52;;;;;;;1999.90;999.90;;;2.40;99.90;;;;;;5019564;28;20154;-87
2021/01/14 08:12:20;;;;;;;1999.90;999.90;;;2.50;99.90;;;;;;5019618;28;20185;-87
2021/01/14 08:14:46;;;;;;;1999.90;999.90;;;2.50;99.90;;;;;;5019057;28;20201;-87
2021/01/14 08:17:33;;;;;;;1999.90;999.90;;;2.50;99.90;;;;;;5018584;28;20629;-86
2021/01/14 08:19:59;;;;;;;1999.90;999.90;;;2.70;99.90;;;;;;5018312;28;20142;-86
2021/01/14 08:22:26;;;;;;;1999.90;999.90;;;2.70;99.90;;;;;;5017240;28;20484;-86
2021/01/14 08:24:59;;;;;;;1999.90;999.90;;;2.70;99.90;;;;;;5018605;28;20404;-87
2021/01/14 08:27:32;;;;;;;1999.90;999.90;;;2.80;99.90;;;;;;5019968;28;20150;-87
2021/01/14 08:30:01;;;;;;;1999.90;999.90;;;2.90;99.90;;;;;;5022870;28;20150;-87
2021/01/14 08:32:32;;;;;;;1999.90;999.90;;;3.00;99.90;;;;;;5003994;28;20174;-87
2021/01/14 08:35:15;;;;;;;1999.90;999.90;;;3.00;99.90;;;;;;5003834;28;20198;-87
2021/01/14 08:37:47;;;;;;;1999.90;999.90;;;3.00;99.90;;;;;;5021794;28;20174;-86
2021/01/14 08:40:22;;;;;;;1999.90;999.90;;;3.10;99.90;;;;;;5004920;28;20177;-86
2021/01/14 08:43:05;;;;;;;1999.90;999.90;;;3.10;99.90;;;;;;5022564;28;20150;-87
2021/01/14 08:45:35;;;;;;;1999.90;999.90;;;3.20;99.90;;;;;;5005001;28;20174;-87
2021/01/14 08:48:02;;;;;;;1999.90;999.90;;;3.20;99.90;;;;;;5005312;28;20241;-87
2021/01/14 08:50:35;;;;;;;1999.90;999.90;;;3.20;99.90;;;;;;5004738;28;20173;-87
2021/01/14 08:53:02;;;;;;;1999.90;999.90;;;3.30;99.90;;;;;;5022487;28;20193;-87
2021/01/14 08:55:29;;;;;;;1999.90;999.90;;;3.30;99.90;;;;;;5022089;28;20239;-87
2021/01/14 08:57:58;;;;;;;1999.90;999.90;;;3.30;99.90;;;;;;5004504;28;20261;-87
2021/01/14 09:00:25;;;;;;;1999.90;999.90;;;3.40;99.90;;;;;;5021382;28;20162;-86
2021/01/14 09:02:51;;;;;;;1999.90;999.90;;;3.30;99.90;;;;;;5004880;28;20189;-87
2021/01/14 09:05:18;;;;;;;1999.90;999.90;;;3.30;99.90;;;;;;5022002;28;20537;-87
2021/01/14 09:08:12;;;;;;;1999.90;999.90;;;3.30;99.90;;;;;;5004379;28;20158;-87
2021/01/14 09:10:46;;;;;;;1999.90;999.90;;;3.30;99.90;;;;;;5006587;28;20158;-87
2021/01/14 09:13:20;;;;;;;1999.90;999.90;;;3.40;99.90;;;;;;5005664;28;20265;-87
2021/01/14 09:15:58;;;;;;;1999.90;999.90;;;3.40;99.90;;;;;;5022873;28;20583;-87
2021/01/14 09:18:34;;;;;;;1999.90;999.90;;;3.40;99.90;;;;;;5005802;28;20517;-87
2021/01/14 09:21:01;;;;;;;1999.90;999.90;;;3.50;99.90;;;;;;5005293;28;20237;-87
2021/01/14 09:23:35;;;;;;;1999.90;999.90;;;3.50;99.90;;;;;;5023038;28;20173;-87
2021/01/14 09:26:21;;;;;;;1999.90;999.90;;;3.60;99.90;;;;;;5004634;28;20524;-87
2021/01/14 09:28:49;;;;;;;1999.90;999.90;;;3.50;99.90;;;;;;5004576;28;20522;-87
2021/01/14 09:31:18;;;;;;;1999.90;999.90;;;3.50;99.90;;;;;;5023159;28;20170;-86
2021/01/14 09:33:45;;;;;;;1999.90;999.90;;;3.60;99.90;;;;;;5006009;28;20200;-87
2021/01/14 09:36:19;;;;;;;1999.90;999.90;;;3.60;99.90;;;;;;5024052;28;20216;-87
2021/01/14 09:38:53;;;;;;;1999.90;999.90;;;3.60;99.90;;;;;;5021792;28;20212;-86
2021/01/14 09:41:31;;;;;;;1999.90;999.90;;;3.50;99.90;;;;;;5004448;28;20230;-86
2021/01/14 09:44:01;;;;;;;1999.90;999.90;;;3.40;99.90;;;;;;5004126;28;20185;-86
2021/01/14 09:46:29;;;;;;;1999.90;999.90;;;3.40;99.90;;;;;;5020276;28;20189;-86
2021/01/14 09:49:09;;;;;;;1999.90;999.90;;;3.40;99.90;;;;;;5019482;28;20201;-87
2021/01/14 09:51:39;;;;;;;1999.90;999.90;;;3.50;99.90;;;;;;5002117;28;20654;-87
2021/01/14 09:54:06;;;;;;;1999.90;999.90;;;3.60;99.90;;;;;;5003431;28;20220;-87
2021/01/14 09:56:50;;;;;;;1999.90;999.90;;;3.60;99.90;;;;;;5003437;28;20170;-86
2021/01/14 09:59:26;;;;;;;1999.90;999.90;;;3.60;99.90;;;;;;5019788;28;20571;-87
2021/01/14 10:02:28;;;;;;;1999.90;999.90;;;3.50;99.90;;;;;;5017505;28;20628;-86
2021/01/14 10:05:14;;;;;;;1999.90;999.90;;;3.40;99.90;;;;;;4999019;28;20220;-86
2021/01/14 10:07:52;;;;;;;1999.90;999.90;;;3.30;99.90;;;;;;5016929;28;20529;-86
2021/01/14 10:10:19;;;;;;;1999.90;999.90;;;3.10;99.90;;;;;;5017029;28;20605;-86
2021/01/14 10:12:54;;;;;;;1999.90;999.90;;;3.20;99.90;;;;;;4999115;28;20178;-86
2021/01/14 10:15:20;;;;;;;1999.90;999.90;;;3.20;99.90;;;;;;5000019;28;20175;-87
2021/01/14 10:17:46;;;;;;;1999.90;999.90;;;3.20;99.90;;;;;;5019983;28;20174;-86
2021/01/14 10:20:13;;;;;;;1999.90;999.90;;;3.10;99.90;;;;;;5002095;28;20173;-87
2021/01/14 10:23:05;;;;;;;1999.90;999.90;;;3.20;99.90;;;;;;5019418;28;20435;-86
2021/01/14 10:25:33;;;;;;;1999.90;999.90;;;3.20;99.90;;;;;;5016200;28;20617;-86
2021/01/14 10:28:00;;;;;;;1999.90;999.90;;;3.20;99.90;;;;;;5019880;28;20248;-87
2021/01/14 10:30:26;;;;;;;1999.90;999.90;;;3.30;99.90;;;;;;5020142;28;20169;-87
2021/01/14 10:33:00;;;;;;;1999.90;999.90;;;3.20;99.90;;;;;;5020723;28;20170;-87
2021/01/14 10:35:28;;;;;;;1999.90;999.90;;;3.20;99.90;;;;;;5020755;28;20158;-87
2021/01/14 10:38:13;;;;;;;1999.90;999.90;;;3.10;99.90;;;;;;5020352;28;20170;-87
2021/01/14 10:40:44;;;;;;;1999.90;999.90;;;3.00;99.90;;;;;;5002501;28;20154;-86
2021/01/14 10:43:11;;;;;;;1999.90;999.90;;;3.00;99.90;;;;;;5000468;28;20165;-87
2021/01/14 10:45:39;;;;;;;1999.90;999.90;;;3.00;99.90;;;;;;5019779;28;20165;-87
2021/01/14 10:48:09;;;;;;;1999.90;999.90;;;3.00;99.90;;;;;;5019792;28;20170;-87
2021/01/14 10:50:50;;;;;;;1999.90;999.90;;;3.00;99.90;;;;;;5002340;28;20158;-86
2021/01/14 10:53:24;;;;;;;1999.90;999.90;;;3.10;99.90;;;;;;5020071;28;20185;-87
2021/01/14 10:56:09;;;;;;;1999.90;999.90;;;3.10;99.90;;;;;;5088839;23;20235;-86
2021/01/14 10:58:40;;;;;;;1999.90;999.90;;;3.10;99.90;;;;;;5007139;28;20177;-86
2021/01/14 11:01:20;;;;;;;1999.90;999.90;;;3.10;99.90;;;;;;5004636;28;20253;-84
2021/01/14 11:03:47;;;;;;;1999.90;999.90;;;3.30;99.90;;;;;;5024802;28;20154;-84
2021/01/14 11:06:26;;;;;;;1999.90;999.90;;;3.20;99.90;;;;;;5024194;28;20162;-84
2021/01/14 11:09:02;;;;;;;1999.90;999.90;;;3.20;99.90;;;;;;5023878;28;20177;-84
2021/01/14 11:11:28;;;;;;;1999.90;999.90;;;3.10;99.90;;;;;;5024346;28;20218;-84
2021/01/14 11:13:54;;;;;;;1999.90;999.90;;;3.10;99.90;;;;;;5022011;28;20688;-84
2021/01/14 11:16:25;;;;;;;1999.90;999.90;;;3.10;99.90;;;;;;5023670;28;20625;-84
2021/01/14 11:18:57;;;;;;;1999.90;999.90;;;3.00;99.90;;;;;;5006429;28;20165;-84
2021/01/14 11:21:33;;;;;;;1999.90;999.90;;;3.10;99.90;;;;;;5006142;28;20169;-84
2021/01/14 11:24:00;;;;;;;1999.90;999.90;;;3.20;99.90;;;;;;5023572;28;20177;-84
2021/01/14 11:26:26;;;;;;;1999.90;999.90;;;3.20;99.90;;;;;;5022884;28;20238;-84
2021/01/14 11:28:52;;;;;;;1999.90;999.90;;;3.30;99.90;;;;;;5005709;28;20201;-84
2021/01/14 11:31:32;;;;;;;1999.90;999.90;;;3.30;99.90;;;;;;5022872;28;20204;-84
2021/01/14 11:33:58;;;;;;;1999.90;999.90;;;3.20;99.90;;;;;;5005259;28;20268;-84
2021/01/14 11:36:25;;;;;;;1999.90;999.90;;;3.20;99.90;;;;;;5021895;28;20672;-84
2021/01/14 11:38:53;;;;;;;1999.90;999.90;;;3.10;99.90;;;;;;5023362;28;20162;-84
2021/01/14 11:41:20;;;;;;;1999.90;999.90;;;3.20;99.90;;;;;;5004704;28;20241;-86
2021/01/14 11:43:46;;;;;;;1999.90;999.90;;;3.30;99.90;;;;;;5022959;28;20169;-84
2021/01/14 11:46:16;;;;;;;1999.90;999.90;;;3.20;99.90;;;;;;5022375;28;20213;-84
2021/01/14 11:48:42;;;;;;;1999.90;999.90;;;3.20;99.90;;;;;;5004736;28;20169;-85
2021/01/14 11:51:07;;;;;;;1999.90;999.90;;;3.40;99.90;;;;;;5003399;28;20174;-85
2021/01/14 11:53:33;;;;;;;1999.90;999.90;;;3.40;99.90;;;;;;5021391;28;20178;-85
2021/01/14 11:55:59;;;;;;;1999.90;999.90;;;3.40;99.90;;;;;;5004462;28;20184;-85
2021/01/14 11:58:24;;;;;;;1999.90;999.90;;;3.40;99.90;;;;;;5021325;28;20169;-84
2021/01/14 12:00:50;;;;;;;1999.90;999.90;;;3.40;99.90;;;;;;5023345;28;20208;-85
2021/01/14 12:03:16;;;;;;;1999.90;999.90;;;3.50;99.90;;;;;;5019662;28;20249;-84
2021/01/14 12:05:42;;;;;;;1999.90;999.90;;;3.60;99.90;;;;;;5002351;28;20173;-84
2021/01/14 12:08:07;;;;;;;1999.90;999.90;;;3.60;99.90;;;;;;5001570;28;20166;-84
2021/01/14 12:10:33;;;;;;;1999.90;999.90;;;3.80;99.90;;;;;;5017993;28;20425;-84
2021/01/14 12:12:59;;;;;;;1999.90;999.90;;;3.70;99.90;;;;;;5018494;28;20219;-85
2021/01/14 12:15:24;;;;;;;1999.90;999.90;;;3.60;99.90;;;;;;5001190;28;20192;-84
2021/01/14 12:17:50;;;;;;;1999.90;999.90;;;3.60;99.90;;;;;;5017574;28;20164;-84
2021/01/14 12:20:16;;;;;;;1999.90;999.90;;;3.50;99.90;;;;;;5000998;28;20197;-84
2021/01/14 12:22:42;;;;;;;1999.90;999.90;;;3.50;99.90;;;;;;5019413;28;20174;-84
2021/01/14 12:25:12;;;;;;;1999.90;999.90;;;3.50;99.90;;;;;;5018744;28;20405;-84